sensor_id;sensor_type;location;lat;lon;timestamp;temperature;humidity
48515;DHT22;34309;47.260;2.796;2023-02-28T00:01:27;21.30;11.10
48515;DHT22;34309;47.260;2.796;2023-02-28T00:04:01;21.30;10.80
48515;DHT22;34309;47.260;2.796;2023-02-28T00:06:35;21.20;11.10
48515;DHT22;34309;47.260;2.796;2023-02-28T00:09:08;21.20;11.00
48515;DHT22;34309;47.260;2.796;2023-02-28T00:11:43;21.10;10.90
48515;DHT22;34309;47.260;2.796;2023-02-28T00:14:17;21.10;10.90
48515;DHT22;34309;47.260;2.796;2023-02-28T00:16:51;21.00;11.00
48515;DHT22;34309;47.260;2.796;2023-02-28T00:19:25;21.00;11.00
48515;DHT22;34309;47.260;2.796;2023-02-28T00:21:59;21.00;11.30
48515;DHT22;34309;47.260;2.796;2023-02-28T00:24:32;20.90;11.20
48515;DHT22;34309;47.260;2.796;2023-02-28T00:27:08;20.80;11.20
48515;DHT22;34309;47.260;2.796;2023-02-28T00:29:42;20.80;11.50
48515;DHT22;34309;47.260;2.796;2023-02-28T00:32:16;20.80;11.50
48515;DHT22;34309;47.260;2.796;2023-02-28T00:34:50;20.80;11.50
48515;DHT22;34309;47.260;2.796;2023-02-28T00:37:24;20.90;11.60
48515;DHT22;34309;47.260;2.796;2023-02-28T00:39:58;20.90;11.60
48515;DHT22;34309;47.260;2.796;2023-02-28T00:42:34;20.90;11.50
48515;DHT22;34309;47.260;2.796;2023-02-28T00:45:08;20.90;11.40
48515;DHT22;34309;47.260;2.796;2023-02-28T00:47:42;20.90;11.40
48515;DHT22;34309;47.260;2.796;2023-02-28T00:50:16;20.90;11.20
48515;DHT22;34309;47.260;2.796;2023-02-28T00:52:50;20.90;11.20
48515;DHT22;34309;47.260;2.796;2023-02-28T00:55:24;20.90;11.30
48515;DHT22;34309;47.260;2.796;2023-02-28T00:57:59;20.90;11.30
48515;DHT22;34309;47.260;2.796;2023-02-28T01:00:33;21.00;11.30
48515;DHT22;34309;47.260;2.796;2023-02-28T01:03:06;21.10;11.40
48515;DHT22;34309;47.260;2.796;2023-02-28T01:05:40;21.00;11.70
48515;DHT22;34309;47.260;2.796;2023-02-28T01:08:14;21.10;11.20
48515;DHT22;34309;47.260;2.796;2023-02-28T01:10:48;21.10;11.20
48515;DHT22;34309;47.260;2.796;2023-02-28T01:13:24;21.10;11.00
48515;DHT22;34309;47.260;2.796;2023-02-28T01:15:57;21.20;11.00
48515;DHT22;34309;47.260;2.796;2023-02-28T01:18:31;21.20;11.00
48515;DHT22;34309;47.260;2.796;2023-02-28T01:21:06;21.20;10.80
48515;DHT22;34309;47.260;2.796;2023-02-28T01:23:43;21.20;10.70
48515;DHT22;34309;47.260;2.796;2023-02-28T01:26:19;21.20;11.00
48515;DHT22;34309;47.260;2.796;2023-02-28T01:28:54;21.20;11.00
48515;DHT22;34309;47.260;2.796;2023-02-28T01:31:28;21.20;11.00
48515;DHT22;34309;47.260;2.796;2023-02-28T01:34:02;21.20;11.00
48515;DHT22;34309;47.260;2.796;2023-02-28T01:36:36;21.20;10.90
48515;DHT22;34309;47.260;2.796;2023-02-28T01:39:10;21.20;10.70
48515;DHT22;34309;47.260;2.796;2023-02-28T01:41:44;21.20;10.40
48515;DHT22;34309;47.260;2.796;2023-02-28T01:45:01;21.10;10.50
48515;DHT22;34309;47.260;2.796;2023-02-28T01:47:38;21.10;10.60
48515;DHT22;34309;47.260;2.796;2023-02-28T01:50:16;21.00;10.50
48515;DHT22;34309;47.260;2.796;2023-02-28T01:52:51;21.00;10.50
48515;DHT22;34309;47.260;2.796;2023-02-28T01:55:28;20.90;10.60
48515;DHT22;34309;47.260;2.796;2023-02-28T01:58:04;20.90;10.50
48515;DHT22;34309;47.260;2.796;2023-02-28T02:00:41;20.90;10.60
48515;DHT22;34309;47.260;2.796;2023-02-28T02:03:17;20.80;10.50
48515;DHT22;34309;47.260;2.796;2023-02-28T02:05:52;20.80;10.60
48515;DHT22;34309;47.260;2.796;2023-02-28T02:08:28;20.80;10.80
48515;DHT22;34309;47.260;2.796;2023-02-28T02:11:02;20.70;10.80
48515;DHT22;34309;47.260;2.796;2023-02-28T02:13:53;20.70;10.90
48515;DHT22;34309;47.260;2.796;2023-02-28T02:16:43;20.70;11.00
48515;DHT22;34309;47.260;2.796;2023-02-28T02:19:34;20.70;11.00
48515;DHT22;34309;47.260;2.796;2023-02-28T02:22:55;20.70;10.80
48515;DHT22;34309;47.260;2.796;2023-02-28T02:25:38;20.70;10.90
48515;DHT22;34309;47.260;2.796;2023-02-28T02:28:36;20.80;11.10
48515;DHT22;34309;47.260;2.796;2023-02-28T02:31:36;20.80;11.10
48515;DHT22;34309;47.260;2.796;2023-02-28T02:34:29;20.80;11.00
48515;DHT22;34309;47.260;2.796;2023-02-28T02:37:19;20.80;11.00
48515;DHT22;34309;47.260;2.796;2023-02-28T02:40:00;20.80;11.00
48515;DHT22;34309;47.260;2.796;2023-02-28T02:42:39;20.80;11.10
48515;DHT22;34309;47.260;2.796;2023-02-28T02:45:21;20.80;11.10
48515;DHT22;34309;47.260;2.796;2023-02-28T02:47:57;20.80;11.00
48515;DHT22;34309;47.260;2.796;2023-02-28T02:50:36;20.80;10.90
48515;DHT22;34309;47.260;2.796;2023-02-28T02:53:12;20.80;11.00
48515;DHT22;34309;47.260;2.796;2023-02-28T02:55:50;20.90;11.00
48515;DHT22;34309;47.260;2.796;2023-02-28T02:58:29;20.90;11.00
48515;DHT22;34309;47.260;2.796;2023-02-28T03:01:05;20.90;10.90
48515;DHT22;34309;47.260;2.796;2023-02-28T03:03:39;20.90;11.00
48515;DHT22;34309;47.260;2.796;2023-02-28T03:06:15;20.90;10.90
48515;DHT22;34309;47.260;2.796;2023-02-28T03:08:48;20.90;10.90
48515;DHT22;34309;47.260;2.796;2023-02-28T03:11:22;20.90;10.90
48515;DHT22;34309;47.260;2.796;2023-02-28T03:14:13;21.00;10.90
48515;DHT22;34309;47.260;2.796;2023-02-28T03:20:01;21.00;10.80
48515;DHT22;34309;47.260;2.796;2023-02-28T03:23:03;21.00;10.60
48515;DHT22;34309;47.260;2.796;2023-02-28T03:25:52;21.00;11.00
48515;DHT22;34309;47.260;2.796;2023-02-28T03:28:32;21.00;10.90
48515;DHT22;34309;47.260;2.796;2023-02-28T03:31:15;21.00;10.70
48515;DHT22;34309;47.260;2.796;2023-02-28T03:33:54;21.00;10.60
48515;DHT22;34309;47.260;2.796;2023-02-28T03:36:29;21.00;10.80
48515;DHT22;34309;47.260;2.796;2023-02-28T03:39:08;20.90;10.60
48515;DHT22;34309;47.260;2.796;2023-02-28T03:41:45;20.90;10.50
48515;DHT22;34309;47.260;2.796;2023-02-28T03:44:24;20.80;10.40
48515;DHT22;34309;47.260;2.796;2023-02-28T03:47:02;20.80;10.50
48515;DHT22;34309;47.260;2.796;2023-02-28T03:49:40;20.80;10.70
48515;DHT22;34309;47.260;2.796;2023-02-28T03:52:19;20.70;10.50
48515;DHT22;34309;47.260;2.796;2023-02-28T03:55:00;20.70;10.40
48515;DHT22;34309;47.260;2.796;2023-02-28T03:57:41;20.70;10.60
48515;DHT22;34309;47.260;2.796;2023-02-28T04:00:20;20.60;10.40
48515;DHT22;34309;47.260;2.796;2023-02-28T04:02:55;20.60;10.60
48515;DHT22;34309;47.260;2.796;2023-02-28T04:05:29;20.60;10.70
48515;DHT22;34309;47.260;2.796;2023-02-28T04:08:04;20.50;10.60
48515;DHT22;34309;47.260;2.796;2023-02-28T04:10:39;20.50;10.90
48515;DHT22;34309;47.260;2.796;2023-02-28T04:13:10;20.50;10.80
48515;DHT22;34309;47.260;2.796;2023-02-28T04:15:44;20.50;11.00
48515;DHT22;34309;47.260;2.796;2023-02-28T04:18:18;20.50;10.90
48515;DHT22;34309;47.260;2.796;2023-02-28T04:20:52;20.50;11.00
48515;DHT22;34309;47.260;2.796;2023-02-28T04:23:25;20.60;11.00
48515;DHT22;34309;47.260;2.796;2023-02-28T04:26:01;20.60;10.90
48515;DHT22;34309;47.260;2.796;2023-02-28T04:28:29;20.60;11.00
48515;DHT22;34309;47.260;2.796;2023-02-28T04:31:04;20.60;11.00
48515;DHT22;34309;47.260;2.796;2023-02-28T04:33:38;20.60;11.50
48515;DHT22;34309;47.260;2.796;2023-02-28T04:36:12;20.60;11.00
48515;DHT22;34309;47.260;2.796;2023-02-28T04:38:46;20.60;11.00
48515;DHT22;34309;47.260;2.796;2023-02-28T04:41:21;20.60;10.90
48515;DHT22;34309;47.260;2.796;2023-02-28T04:43:55;20.60;10.80
48515;DHT22;34309;47.260;2.796;2023-02-28T04:46:29;20.70;10.90
48515;DHT22;34309;47.260;2.796;2023-02-28T04:48:58;20.70;10.80
48515;DHT22;34309;47.260;2.796;2023-02-28T04:51:31;20.70;10.90
48515;DHT22;34309;47.260;2.796;2023-02-28T04:54:05;20.70;10.70
48515;DHT22;34309;47.260;2.796;2023-02-28T04:56:40;20.70;10.80
48515;DHT22;34309;47.260;2.796;2023-02-28T04:59:14;20.70;10.80
48515;DHT22;34309;47.260;2.796;2023-02-28T05:01:49;20.80;10.90
48515;DHT22;34309;47.260;2.796;2023-02-28T05:04:23;20.80;10.70
48515;DHT22;34309;47.260;2.796;2023-02-28T05:06:56;20.70;10.70
48515;DHT22;34309;47.260;2.796;2023-02-28T05:09:30;20.80;10.70
48515;DHT22;34309;47.260;2.796;2023-02-28T05:12:07;20.80;10.60
48515;DHT22;34309;47.260;2.796;2023-02-28T05:14:41;20.80;10.70
48515;DHT22;34309;47.260;2.796;2023-02-28T05:17:16;20.80;10.50
48515;DHT22;34309;47.260;2.796;2023-02-28T05:19:50;20.80;10.50
48515;DHT22;34309;47.260;2.796;2023-02-28T05:22:23;20.90;10.50
48515;DHT22;34309;47.260;2.796;2023-02-28T05:24:56;20.90;10.60
48515;DHT22;34309;47.260;2.796;2023-02-28T05:27:32;20.90;10.50
48515;DHT22;34309;47.260;2.796;2023-02-28T05:30:07;20.90;10.50
48515;DHT22;34309;47.260;2.796;2023-02-28T05:32:43;20.90;10.40
48515;DHT22;34309;47.260;2.796;2023-02-28T05:35:17;20.90;10.30
48515;DHT22;34309;47.260;2.796;2023-02-28T05:37:51;20.90;10.30
48515;DHT22;34309;47.260;2.796;2023-02-28T05:40:19;20.90;10.40
48515;DHT22;34309;47.260;2.796;2023-02-28T05:42:54;20.80;10.50
48515;DHT22;34309;47.260;2.796;2023-02-28T05:45:28;20.80;10.50
48515;DHT22;34309;47.260;2.796;2023-02-28T05:48:01;20.80;10.30
48515;DHT22;34309;47.260;2.796;2023-02-28T05:50:35;20.80;10.50
48515;DHT22;34309;47.260;2.796;2023-02-28T05:53:09;20.70;10.20
48515;DHT22;34309;47.260;2.796;2023-02-28T05:55:43;20.70;10.40
48515;DHT22;34309;47.260;2.796;2023-02-28T05:58:18;20.60;10.30
48515;DHT22;34309;47.260;2.796;2023-02-28T06:00:53;20.60;10.60
48515;DHT22;34309;47.260;2.796;2023-02-28T06:03:27;20.60;10.50
48515;DHT22;34309;47.260;2.796;2023-02-28T06:06:01;20.50;10.60
48515;DHT22;34309;47.260;2.796;2023-02-28T06:08:34;20.50;10.50
48515;DHT22;34309;47.260;2.796;2023-02-28T06:11:08;20.60;10.60
48515;DHT22;34309;47.260;2.796;2023-02-28T06:13:43;20.60;10.60
48515;DHT22;34309;47.260;2.796;2023-02-28T06:16:17;20.60;10.60
48515;DHT22;34309;47.260;2.796;2023-02-28T06:18:50;20.60;10.60
48515;DHT22;34309;47.260;2.796;2023-02-28T06:21:25;20.60;10.40
48515;DHT22;34309;47.260;2.796;2023-02-28T06:23:59;20.60;10.40
48515;DHT22;34309;47.260;2.796;2023-02-28T06:26:33;20.60;10.50
48515;DHT22;34309;47.260;2.796;2023-02-28T06:29:08;20.60;10.40
48515;DHT22;34309;47.260;2.796;2023-02-28T06:31:42;20.60;10.40
48515;DHT22;34309;47.260;2.796;2023-02-28T06:34:16;20.60;10.40
48515;DHT22;34309;47.260;2.796;2023-02-28T06:36:44;20.60;10.50
48515;DHT22;34309;47.260;2.796;2023-02-28T06:39:18;20.60;10.30
48515;DHT22;34309;47.260;2.796;2023-02-28T06:41:52;20.60;10.40
48515;DHT22;34309;47.260;2.796;2023-02-28T06:44:27;20.60;10.50
48515;DHT22;34309;47.260;2.796;2023-02-28T06:47:07;20.60;10.30
48515;DHT22;34309;47.260;2.796;2023-02-28T06:49:41;20.70;10.20
48515;DHT22;34309;47.260;2.796;2023-02-28T06:52:14;20.60;10.30
48515;DHT22;34309;47.260;2.796;2023-02-28T06:54:48;20.60;10.30
48515;DHT22;34309;47.260;2.796;2023-02-28T06:57:32;20.60;10.30
48515;DHT22;34309;47.260;2.796;2023-02-28T07:00:09;20.80;10.20
48515;DHT22;34309;47.260;2.796;2023-02-28T07:02:44;21.10;10.00
48515;DHT22;34309;47.260;2.796;2023-02-28T07:05:18;21.20;9.80
48515;DHT22;34309;47.260;2.796;2023-02-28T07:07:52;21.40;9.70
48515;DHT22;34309;47.260;2.796;2023-02-28T07:10:25;21.50;9.60
48515;DHT22;34309;47.260;2.796;2023-02-28T07:12:59;21.60;9.50
48515;DHT22;34309;47.260;2.796;2023-02-28T07:15:34;21.70;9.50
48515;DHT22;34309;47.260;2.796;2023-02-28T07:18:08;21.70;9.40
48515;DHT22;34309;47.260;2.796;2023-02-28T07:20:42;21.70;9.50
48515;DHT22;34309;47.260;2.796;2023-02-28T07:23:16;21.60;9.50
48515;DHT22;34309;47.260;2.796;2023-02-28T07:25:50;21.50;9.50
48515;DHT22;34309;47.260;2.796;2023-02-28T07:28:24;21.60;9.40
48515;DHT22;34309;47.260;2.796;2023-02-28T07:31:04;21.50;9.50
48515;DHT22;34309;47.260;2.796;2023-02-28T07:33:33;21.40;9.50
48515;DHT22;34309;47.260;2.796;2023-02-28T07:36:09;21.40;9.60
48515;DHT22;34309;47.260;2.796;2023-02-28T07:38:47;21.30;9.50
48515;DHT22;34309;47.260;2.796;2023-02-28T07:41:23;21.30;9.60
48515;DHT22;34309;47.260;2.796;2023-02-28T07:44:00;21.20;9.50
48515;DHT22;34309;47.260;2.796;2023-02-28T07:46:36;21.20;9.40
48515;DHT22;34309;47.260;2.796;2023-02-28T07:49:05;21.10;9.40
48515;DHT22;34309;47.260;2.796;2023-02-28T07:51:39;21.00;9.50
48515;DHT22;34309;47.260;2.796;2023-02-28T07:54:13;20.90;9.50
48515;DHT22;34309;47.260;2.796;2023-02-28T07:56:47;20.90;9.40
48515;DHT22;34309;47.260;2.796;2023-02-28T07:59:20;20.80;9.40
48515;DHT22;34309;47.260;2.796;2023-02-28T08:01:59;20.60;9.20
48515;DHT22;34309;47.260;2.796;2023-02-28T08:04:33;20.50;9.30
48515;DHT22;34309;47.260;2.796;2023-02-28T08:07:02;20.40;9.80
48515;DHT22;34309;47.260;2.796;2023-02-28T08:09:36;20.40;9.90
48515;DHT22;34309;47.260;2.796;2023-02-28T08:12:11;20.40;9.90
48515;DHT22;34309;47.260;2.796;2023-02-28T08:14:46;20.40;9.90
48515;DHT22;34309;47.260;2.796;2023-02-28T08:17:21;20.40;9.90
48515;DHT22;34309;47.260;2.796;2023-02-28T08:19:55;20.40;9.80
48515;DHT22;34309;47.260;2.796;2023-02-28T08:22:29;20.40;9.90
48515;DHT22;34309;47.260;2.796;2023-02-28T08:25:03;20.50;9.80
48515;DHT22;34309;47.260;2.796;2023-02-28T08:27:39;20.50;9.80
48515;DHT22;34309;47.260;2.796;2023-02-28T08:30:13;20.60;9.80
48515;DHT22;34309;47.260;2.796;2023-02-28T08:32:49;20.50;9.70
48515;DHT22;34309;47.260;2.796;2023-02-28T08:35:22;20.60;9.80
48515;DHT22;34309;47.260;2.796;2023-02-28T08:37:56;20.60;9.80
48515;DHT22;34309;47.260;2.796;2023-02-28T08:40:30;20.60;9.70
48515;DHT22;34309;47.260;2.796;2023-02-28T08:43:04;20.70;9.70
48515;DHT22;34309;47.260;2.796;2023-02-28T08:45:37;20.70;9.60
48515;DHT22;34309;47.260;2.796;2023-02-28T08:48:13;20.70;9.60
48515;DHT22;34309;47.260;2.796;2023-02-28T08:50:55;20.70;9.60
48515;DHT22;34309;47.260;2.796;2023-02-28T08:53:29;20.80;9.60
48515;DHT22;34309;47.260;2.796;2023-02-28T08:56:05;20.80;9.50
48515;DHT22;34309;47.260;2.796;2023-02-28T08:58:39;20.70;9.60
48515;DHT22;34309;47.260;2.796;2023-02-28T09:01:15;20.80;9.60
48515;DHT22;34309;47.260;2.796;2023-02-28T09:03:51;20.90;9.60
48515;DHT22;34309;47.260;2.796;2023-02-28T09:06:26;20.80;9.50
48515;DHT22;34309;47.260;2.796;2023-02-28T09:09:00;20.80;9.50
48515;DHT22;34309;47.260;2.796;2023-02-28T09:11:34;20.80;9.50
48515;DHT22;34309;47.260;2.796;2023-02-28T09:14:08;20.70;9.60
48515;DHT22;34309;47.260;2.796;2023-02-28T09:16:41;20.70;9.70
48515;DHT22;34309;47.260;2.796;2023-02-28T09:19:16;20.60;9.50
48515;DHT22;34309;47.260;2.796;2023-02-28T09:21:50;20.60;9.60
48515;DHT22;34309;47.260;2.796;2023-02-28T09:24:24;20.60;9.70
48515;DHT22;34309;47.260;2.796;2023-02-28T09:26:58;20.60;9.70
48515;DHT22;34309;47.260;2.796;2023-02-28T09:29:32;20.70;9.70
48515;DHT22;34309;47.260;2.796;2023-02-28T09:32:06;20.70;9.50
48515;DHT22;34309;47.260;2.796;2023-02-28T09:34:41;20.80;9.40
48515;DHT22;34309;47.260;2.796;2023-02-28T09:37:15;20.80;9.40
48515;DHT22;34309;47.260;2.796;2023-02-28T09:39:49;20.80;9.50
48515;DHT22;34309;47.260;2.796;2023-02-28T09:42:27;20.70;9.60
48515;DHT22;34309;47.260;2.796;2023-02-28T09:45:06;20.70;9.70
48515;DHT22;34309;47.260;2.796;2023-02-28T09:47:44;20.60;9.70
48515;DHT22;34309;47.260;2.796;2023-02-28T09:50:28;20.60;9.80
48515;DHT22;34309;47.260;2.796;2023-02-28T09:53:13;20.50;9.80
48515;DHT22;34309;47.260;2.796;2023-02-28T09:55:52;20.50;9.90
48515;DHT22;34309;47.260;2.796;2023-02-28T09:58:33;20.40;9.80
48515;DHT22;34309;47.260;2.796;2023-02-28T10:01:18;20.40;9.90
48515;DHT22;34309;47.260;2.796;2023-02-28T10:03:57;20.30;10.00
48515;DHT22;34309;47.260;2.796;2023-02-28T10:06:39;20.30;10.00
48515;DHT22;34309;47.260;2.796;2023-02-28T10:09:18;20.20;10.00
48515;DHT22;34309;47.260;2.796;2023-02-28T10:11:57;20.20;10.20
48515;DHT22;34309;47.260;2.796;2023-02-28T10:14:34;20.10;10.10
48515;DHT22;34309;47.260;2.796;2023-02-28T10:17:11;20.00;10.20
48515;DHT22;34309;47.260;2.796;2023-02-28T10:19:53;19.90;10.10
48515;DHT22;34309;47.260;2.796;2023-02-28T10:22:34;19.90;10.20
48515;DHT22;34309;47.260;2.796;2023-02-28T10:25:17;19.80;10.30
48515;DHT22;34309;47.260;2.796;2023-02-28T10:27:53;19.70;10.30
48515;DHT22;34309;47.260;2.796;2023-02-28T10:30:27;19.70;10.40
48515;DHT22;34309;47.260;2.796;2023-02-28T10:33:01;19.70;10.60
48515;DHT22;34309;47.260;2.796;2023-02-28T10:35:35;19.60;10.50
48515;DHT22;34309;47.260;2.796;2023-02-28T10:38:18;19.50;10.40
48515;DHT22;34309;47.260;2.796;2023-02-28T10:41:03;19.50;10.40
48515;DHT22;34309;47.260;2.796;2023-02-28T10:43:38;19.40;10.40
48515;DHT22;34309;47.260;2.796;2023-02-28T10:46:15;19.30;10.40
48515;DHT22;34309;47.260;2.796;2023-02-28T10:49:03;19.30;10.40
48515;DHT22;34309;47.260;2.796;2023-02-28T10:51:40;19.20;10.50
48515;DHT22;34309;47.260;2.796;2023-02-28T10:54:20;19.10;10.70
48515;DHT22;34309;47.260;2.796;2023-02-28T10:57:14;19.10;10.60
48515;DHT22;34309;47.260;2.796;2023-02-28T10:59:51;19.10;10.70
48515;DHT22;34309;47.260;2.796;2023-02-28T11:02:32;19.00;10.60
48515;DHT22;34309;47.260;2.796;2023-02-28T11:05:28;19.00;10.80
48515;DHT22;34309;47.260;2.796;2023-02-28T11:08:05;19.00;10.80
48515;DHT22;34309;47.260;2.796;2023-02-28T11:10:45;19.00;10.80
48515;DHT22;34309;47.260;2.796;2023-02-28T11:13:20;18.90;10.60
48515;DHT22;34309;47.260;2.796;2023-02-28T11:15:57;18.80;10.60
48515;DHT22;34309;47.260;2.796;2023-02-28T11:18:40;18.80;10.60
48515;DHT22;34309;47.260;2.796;2023-02-28T11:21:22;18.80;10.80
48515;DHT22;34309;47.260;2.796;2023-02-28T11:24:02;18.70;10.60
48515;DHT22;34309;47.260;2.796;2023-02-28T11:26:43;18.70;10.70
48515;DHT22;34309;47.260;2.796;2023-02-28T11:29:20;18.60;10.80
48515;DHT22;34309;47.260;2.796;2023-02-28T11:32:11;18.60;10.80
48515;DHT22;34309;47.260;2.796;2023-02-28T11:34:46;18.50;10.70
48515;DHT22;34309;47.260;2.796;2023-02-28T11:37:20;18.50;10.70
48515;DHT22;34309;47.260;2.796;2023-02-28T11:39:54;18.40;10.50
48515;DHT22;34309;47.260;2.796;2023-02-28T11:45:45;18.40;10.90
48515;DHT22;34309;47.260;2.796;2023-02-28T11:48:27;18.40;11.20
48515;DHT22;34309;47.260;2.796;2023-02-28T11:51:11;18.40;11.20
48515;DHT22;34309;47.260;2.796;2023-02-28T11:53:55;18.50;11.30
48515;DHT22;34309;47.260;2.796;2023-02-28T11:56:35;18.50;11.30
48515;DHT22;34309;47.260;2.796;2023-02-28T11:59:34;18.60;11.30
48515;DHT22;34309;47.260;2.796;2023-02-28T12:02:23;18.60;11.20
48515;DHT22;34309;47.260;2.796;2023-02-28T12:05:18;18.70;11.20
48515;DHT22;34309;47.260;2.796;2023-02-28T12:07:59;18.80;11.20
48515;DHT22;34309;47.260;2.796;2023-02-28T12:10:39;18.80;11.10
48515;DHT22;34309;47.260;2.796;2023-02-28T12:13:21;18.80;11.10
48515;DHT22;34309;47.260;2.796;2023-02-28T12:16:28;18.80;11.00
48515;DHT22;34309;47.260;2.796;2023-02-28T12:19:16;18.90;11.20
48515;DHT22;34309;47.260;2.796;2023-02-28T12:22:03;18.90;11.10
48515;DHT22;34309;47.260;2.796;2023-02-28T12:24:54;18.90;11.00
48515;DHT22;34309;47.260;2.796;2023-02-28T12:27:33;18.90;11.00
48515;DHT22;34309;47.260;2.796;2023-02-28T12:30:17;18.90;10.90
48515;DHT22;34309;47.260;2.796;2023-02-28T12:32:58;18.90;11.00
48515;DHT22;34309;47.260;2.796;2023-02-28T12:35:37;18.90;11.00
48515;DHT22;34309;47.260;2.796;2023-02-28T12:38:12;18.90;10.80
48515;DHT22;34309;47.260;2.796;2023-02-28T12:40:53;18.90;10.90
48515;DHT22;34309;47.260;2.796;2023-02-28T12:43:32;18.80;10.70
48515;DHT22;34309;47.260;2.796;2023-02-28T12:46:10;18.80;10.80
48515;DHT22;34309;47.260;2.796;2023-02-28T12:48:48;18.80;10.90
48515;DHT22;34309;47.260;2.796;2023-02-28T12:51:25;18.80;10.90
48515;DHT22;34309;47.260;2.796;2023-02-28T12:54:09;18.70;10.70
48515;DHT22;34309;47.260;2.796;2023-02-28T12:56:49;18.80;10.60
48515;DHT22;34309;47.260;2.796;2023-02-28T12:59:33;18.70;10.70
48515;DHT22;34309;47.260;2.796;2023-02-28T13:05:50;18.70;10.70
48515;DHT22;34309;47.260;2.796;2023-02-28T13:08:52;18.70;11.40
48515;DHT22;34309;47.260;2.796;2023-02-28T13:11:32;18.60;10.70
48515;DHT22;34309;47.260;2.796;2023-02-28T13:14:19;18.60;10.60
48515;DHT22;34309;47.260;2.796;2023-02-28T13:17:02;18.60;10.70
48515;DHT22;34309;47.260;2.796;2023-02-28T13:19:38;18.50;10.60
48515;DHT22;34309;47.260;2.796;2023-02-28T13:22:19;18.50;10.50
48515;DHT22;34309;47.260;2.796;2023-02-28T13:24:53;18.50;10.50
48515;DHT22;34309;47.260;2.796;2023-02-28T13:27:36;18.40;10.50
48515;DHT22;34309;47.260;2.796;2023-02-28T13:33:25;18.40;10.60
48515;DHT22;34309;47.260;2.796;2023-02-28T13:36:23;18.40;10.70
48515;DHT22;34309;47.260;2.796;2023-02-28T13:39:00;18.30;10.60
48515;DHT22;34309;47.260;2.796;2023-02-28T13:41:46;18.30;10.70
48515;DHT22;34309;47.260;2.796;2023-02-28T13:44:21;18.30;10.80
48515;DHT22;34309;47.260;2.796;2023-02-28T13:47:31;18.30;10.80
48515;DHT22;34309;47.260;2.796;2023-02-28T13:50:22;18.20;10.80
48515;DHT22;34309;47.260;2.796;2023-02-28T13:56:01;18.20;11.00
48515;DHT22;34309;47.260;2.796;2023-02-28T13:58:42;18.10;10.90
48515;DHT22;34309;47.260;2.796;2023-02-28T14:01:30;18.10;11.00
48515;DHT22;34309;47.260;2.796;2023-02-28T14:07:32;18.10;11.10
48515;DHT22;34309;47.260;2.796;2023-02-28T14:10:08;18.10;10.90
48515;DHT22;34309;47.260;2.796;2023-02-28T14:13:36;18.00;10.90
48515;DHT22;34309;47.260;2.796;2023-02-28T14:16:13;18.00;11.00
48515;DHT22;34309;47.260;2.796;2023-02-28T14:18:51;18.00;11.10
48515;DHT22;34309;47.260;2.796;2023-02-28T14:21:30;18.00;11.10
48515;DHT22;34309;47.260;2.796;2023-02-28T14:24:29;18.00;11.30
48515;DHT22;34309;47.260;2.796;2023-02-28T14:27:23;18.00;11.50
48515;DHT22;34309;47.260;2.796;2023-02-28T14:33:20;18.10;12.10
48515;DHT22;34309;47.260;2.796;2023-02-28T14:36:07;18.30;11.50
48515;DHT22;34309;47.260;2.796;2023-02-28T14:38:45;18.40;11.40
48515;DHT22;34309;47.260;2.796;2023-02-28T14:41:22;18.40;11.20
48515;DHT22;34309;47.260;2.796;2023-02-28T14:43:58;18.50;11.40
48515;DHT22;34309;47.260;2.796;2023-02-28T14:46:38;18.60;11.20
48515;DHT22;34309;47.260;2.796;2023-02-28T14:49:24;18.60;11.30
48515;DHT22;34309;47.260;2.796;2023-02-28T14:52:06;18.70;11.00
48515;DHT22;34309;47.260;2.796;2023-02-28T14:54:42;18.80;10.90
48515;DHT22;34309;47.260;2.796;2023-02-28T14:57:22;18.90;10.90
48515;DHT22;34309;47.260;2.796;2023-02-28T15:00:06;18.90;10.90
48515;DHT22;34309;47.260;2.796;2023-02-28T15:02:44;19.00;10.90
48515;DHT22;34309;47.260;2.796;2023-02-28T15:05:25;19.00;10.90
48515;DHT22;34309;47.260;2.796;2023-02-28T15:08:10;19.10;10.90
48515;DHT22;34309;47.260;2.796;2023-02-28T15:10:50;19.10;10.80
48515;DHT22;34309;47.260;2.796;2023-02-28T15:13:32;19.10;10.90
48515;DHT22;34309;47.260;2.796;2023-02-28T15:16:11;19.10;10.70
48515;DHT22;34309;47.260;2.796;2023-02-28T15:18:49;19.10;10.60
48515;DHT22;34309;47.260;2.796;2023-02-28T15:21:26;19.10;10.50
48515;DHT22;34309;47.260;2.796;2023-02-28T15:24:04;19.10;10.60
48515;DHT22;34309;47.260;2.796;2023-02-28T15:26:42;19.10;10.70
48515;DHT22;34309;47.260;2.796;2023-02-28T15:29:20;19.10;10.50
48515;DHT22;34309;47.260;2.796;2023-02-28T15:31:57;19.10;10.60
48515;DHT22;34309;47.260;2.796;2023-02-28T15:34:37;19.10;10.50
48515;DHT22;34309;47.260;2.796;2023-02-28T15:37:33;19.10;10.40
48515;DHT22;34309;47.260;2.796;2023-02-28T15:40:17;19.10;10.50
48515;DHT22;34309;47.260;2.796;2023-02-28T15:42:59;19.10;10.50
48515;DHT22;34309;47.260;2.796;2023-02-28T15:45:38;19.00;10.60
48515;DHT22;34309;47.260;2.796;2023-02-28T15:48:17;19.00;10.40
48515;DHT22;34309;47.260;2.796;2023-02-28T15:50:54;19.00;10.50
48515;DHT22;34309;47.260;2.796;2023-02-28T15:53:32;19.00;10.50
48515;DHT22;34309;47.260;2.796;2023-02-28T15:56:17;18.90;10.50
48515;DHT22;34309;47.260;2.796;2023-02-28T15:58:54;18.90;10.40
48515;DHT22;34309;47.260;2.796;2023-02-28T16:01:29;18.80;10.50
48515;DHT22;34309;47.260;2.796;2023-02-28T16:04:07;18.80;10.40
48515;DHT22;34309;47.260;2.796;2023-02-28T16:06:53;18.70;10.30
48515;DHT22;34309;47.260;2.796;2023-02-28T16:09:28;18.80;10.30
48515;DHT22;34309;47.260;2.796;2023-02-28T16:12:03;18.70;10.30
48515;DHT22;34309;47.260;2.796;2023-02-28T16:14:37;18.70;10.30
48515;DHT22;34309;47.260;2.796;2023-02-28T16:17:19;18.70;10.50
48515;DHT22;34309;47.260;2.796;2023-02-28T16:19:54;18.60;10.40
48515;DHT22;34309;47.260;2.796;2023-02-28T16:22:29;18.60;10.50
48515;DHT22;34309;47.260;2.796;2023-02-28T16:25:04;18.50;10.60
48515;DHT22;34309;47.260;2.796;2023-02-28T16:27:40;18.50;10.70
48515;DHT22;34309;47.260;2.796;2023-02-28T16:30:19;18.50;10.80
48515;DHT22;34309;47.260;2.796;2023-02-28T16:32:54;18.50;10.70
48515;DHT22;34309;47.260;2.796;2023-02-28T16:35:28;18.40;10.60
48515;DHT22;34309;47.260;2.796;2023-02-28T16:38:04;18.40;10.60
48515;DHT22;34309;47.260;2.796;2023-02-28T16:40:38;18.40;10.60
48515;DHT22;34309;47.260;2.796;2023-02-28T16:43:16;18.40;10.60
48515;DHT22;34309;47.260;2.796;2023-02-28T16:45:55;18.30;10.60
48515;DHT22;34309;47.260;2.796;2023-02-28T16:48:29;18.30;10.90
48515;DHT22;34309;47.260;2.796;2023-02-28T16:51:03;18.30;11.00
48515;DHT22;34309;47.260;2.796;2023-02-28T16:53:38;18.30;11.10
48515;DHT22;34309;47.260;2.796;2023-02-28T16:56:16;18.40;11.20
48515;DHT22;34309;47.260;2.796;2023-02-28T16:58:51;18.40;11.20
48515;DHT22;34309;47.260;2.796;2023-02-28T17:01:24;18.50;11.20
48515;DHT22;34309;47.260;2.796;2023-02-28T17:03:59;18.60;11.20